createdAt,value
2018-07-17T00:01:56.293Z,6.27
2018-07-17T00:04:24.781Z,6.83
2018-07-17T00:06:53.157Z,6.93
2018-07-17T00:09:21.606Z,6.10
2018-07-17T00:11:50.011Z,7.13
2018-07-17T00:14:18.424Z,6.53
2018-07-17T00:16:46.804Z,8.70
2018-07-17T00:19:15.222Z,9.07
2018-07-17T00:21:43.614Z,9.13
2018-07-17T00:24:11.967Z,10.80
2018-07-17T00:26:40.344Z,12.17
2018-07-17T00:29:08.783Z,14.40
2018-07-17T00:31:37.121Z,14.83
2018-07-17T00:34:05.759Z,15.43
2018-07-17T00:36:34.153Z,16.33
2018-07-17T00:39:02.592Z,18.53
2018-07-17T00:41:30.939Z,20.13
2018-07-17T00:43:59.326Z,18.10
2018-07-17T00:46:27.709Z,16.17
2018-07-17T00:48:56.187Z,17.33
2018-07-17T00:51:24.552Z,16.83
2018-07-17T00:53:59.255Z,17.47
2018-07-17T00:56:27.666Z,16.57
2018-07-17T00:58:56.059Z,17.53
2018-07-17T01:01:30.187Z,15.93
2018-07-17T01:04:03.824Z,14.93
2018-07-17T01:06:37.551Z,16.30
2018-07-17T01:09:12.700Z,17.03
2018-07-17T01:11:46.774Z,17.17
2018-07-17T01:14:22.171Z,16.73
2018-07-17T01:16:50.529Z,18.03
2018-07-17T01:19:18.924Z,20.37
2018-07-17T01:21:47.295Z,20.27
2018-07-17T01:24:15.675Z,21.20
2018-07-17T01:26:44.038Z,22.37
2018-07-17T01:29:12.498Z,21.80
2018-07-17T01:31:40.867Z,21.70
2018-07-17T01:34:09.227Z,21.33
2018-07-17T01:36:37.592Z,21.07
2018-07-17T01:39:10.231Z,21.20
2018-07-17T01:41:38.584Z,18.40
2018-07-17T01:44:07.060Z,20.07
2018-07-17T01:46:35.484Z,21.00
2018-07-17T01:49:03.854Z,20.47
2018-07-17T01:51:32.235Z,17.40
2018-07-17T01:54:00.612Z,17.37
2018-07-17T01:56:28.989Z,16.93
2018-07-17T01:58:57.353Z,16.43
2018-07-17T02:01:25.708Z,15.10
2018-07-17T02:03:54.067Z,15.40
2018-07-17T02:06:22.526Z,14.03
2018-07-17T02:08:50.895Z,13.03
2018-07-17T02:11:19.258Z,14.17
2018-07-17T02:13:47.870Z,16.40
2018-07-17T02:16:22.885Z,11.57
2018-07-17T02:18:51.313Z,10.77
2018-07-17T02:21:19.650Z,8.20
2018-07-17T02:23:48.000Z,10.77
2018-07-17T02:26:16.368Z,7.53
2018-07-17T02:28:44.671Z,10.67
2018-07-17T02:31:13.050Z,21.63
2018-07-17T02:33:41.428Z,9.97
2018-07-17T02:36:09.806Z,7.93
2018-07-17T02:38:38.133Z,7.10
2018-07-17T02:41:06.576Z,7.77
2018-07-17T02:43:34.993Z,8.43
2018-07-17T02:46:03.422Z,8.63
2018-07-17T02:48:31.786Z,5.47
2018-07-17T02:51:00.116Z,8.27
2018-07-17T02:53:28.767Z,7.13
2018-07-17T02:55:57.135Z,7.73
2018-07-17T02:58:25.459Z,5.90
2018-07-17T03:00:53.819Z,6.70
2018-07-17T03:03:22.296Z,9.23
2018-07-17T03:05:50.648Z,7.47
2018-07-17T03:08:19.034Z,6.27
2018-07-17T03:10:47.409Z,6.70
2018-07-17T03:13:15.750Z,6.67
2018-07-17T03:15:44.094Z,6.70
2018-07-17T03:18:12.413Z,6.30
2018-07-17T03:20:40.753Z,6.23
2018-07-17T03:23:09.104Z,4.53
2018-07-17T03:25:37.449Z,5.17
2018-07-17T03:28:06.095Z,5.43
2018-07-17T03:30:34.463Z,6.37
2018-07-17T03:33:02.787Z,7.60
2018-07-17T03:35:31.156Z,6.17
2018-07-17T03:37:59.539Z,9.33
2018-07-17T03:40:27.946Z,6.20
2018-07-17T03:42:56.299Z,6.20
2018-07-17T03:45:24.684Z,7.90
2018-07-17T03:47:53.048Z,9.07
2018-07-17T03:50:21.420Z,8.50
2018-07-17T03:52:49.851Z,12.33
2018-07-17T03:55:18.175Z,7.80
2018-07-17T03:57:46.523Z,6.20
2018-07-17T04:00:14.932Z,6.77
2018-07-17T04:02:43.562Z,6.63
2018-07-17T04:05:11.858Z,6.43
2018-07-17T04:07:40.300Z,8.73
2018-07-17T04:10:08.640Z,7.20
2018-07-17T04:12:37.005Z,5.23
2018-07-17T04:15:05.403Z,7.53
2018-07-17T04:17:33.743Z,6.40
2018-07-17T04:20:02.134Z,7.37
2018-07-17T04:22:30.518Z,6.40
2018-07-17T04:24:58.854Z,7.03
2018-07-17T04:27:27.198Z,6.93
2018-07-17T04:29:55.592Z,7.97
2018-07-17T04:32:23.942Z,6.40
2018-07-17T04:34:52.307Z,7.03
2018-07-17T04:37:20.669Z,7.57
2018-07-17T04:39:49.135Z,6.97
2018-07-17T04:42:17.485Z,9.57
2018-07-17T04:44:45.896Z,8.70
2018-07-17T04:47:14.239Z,8.10
2018-07-17T04:49:42.589Z,7.80
2018-07-17T04:52:10.974Z,8.23
2018-07-17T04:54:39.633Z,7.83
2018-07-17T04:57:08.359Z,11.83
2018-07-17T04:59:36.730Z,8.10
2018-07-17T05:02:05.099Z,7.57
2018-07-17T05:04:33.464Z,6.50
2018-07-17T05:07:01.824Z,11.93
2018-07-17T05:09:30.173Z,7.57
2018-07-17T05:11:58.567Z,12.73
2018-07-17T05:14:26.926Z,11.33
2018-07-17T05:16:55.357Z,12.23
2018-07-17T05:19:23.804Z,12.47
2018-07-17T05:21:52.137Z,15.57
2018-07-17T05:24:20.476Z,13.03
2018-07-17T05:26:48.890Z,15.27
2018-07-17T05:29:17.514Z,14.13
2018-07-17T05:31:45.878Z,6.50
2018-07-17T05:36:48.855Z,19.37
2018-07-17T05:39:17.172Z,16.47
2018-07-17T05:41:45.614Z,22.97
2018-07-17T05:44:14.051Z,19.10
2018-07-17T05:46:42.438Z,20.87
2018-07-17T05:49:10.772Z,25.33
2018-07-17T05:51:39.146Z,19.97
2018-07-17T05:54:07.730Z,18.27
2018-07-17T05:56:36.126Z,20.93
2018-07-17T05:59:07.426Z,20.10
2018-07-17T06:01:35.882Z,22.17
2018-07-17T06:04:04.242Z,23.10
2018-07-17T06:06:32.584Z,27.07
2018-07-17T06:09:01.019Z,24.93
2018-07-17T06:11:29.399Z,18.10
2018-07-17T06:13:57.852Z,18.87
2018-07-17T06:16:26.228Z,15.53
2018-07-17T06:18:54.730Z,13.33
2018-07-17T06:21:25.064Z,18.77
2018-07-17T06:23:53.454Z,12.43
2018-07-17T06:26:21.764Z,38.50
2018-07-17T06:28:50.081Z,20.43
2018-07-17T06:31:18.600Z,16.33
2018-07-17T06:33:46.959Z,15.00
2018-07-17T06:36:15.435Z,18.10
2018-07-17T06:38:43.821Z,19.93
2018-07-17T06:41:12.155Z,13.17
2018-07-17T06:43:40.552Z,13.87
2018-07-17T06:46:08.880Z,14.50
2018-07-17T06:48:37.234Z,9.30
2018-07-17T06:51:05.662Z,14.57
2018-07-17T06:53:34.071Z,16.33
2018-07-17T06:56:02.438Z,12.63
2018-07-17T06:58:30.900Z,11.40
2018-07-17T07:00:59.268Z,8.53
2018-07-17T07:03:27.599Z,9.70
2018-07-17T07:05:56.042Z,10.37
2018-07-17T07:08:24.417Z,7.53
2018-07-17T07:10:53.082Z,6.67
2018-07-17T07:13:21.399Z,10.37
2018-07-17T07:15:49.774Z,8.27
2018-07-17T07:18:18.152Z,10.13
2018-07-17T07:20:46.522Z,9.17
2018-07-17T07:23:14.936Z,8.20
2018-07-17T07:25:43.323Z,9.57
2018-07-17T07:28:11.660Z,8.83
2018-07-17T07:30:40.049Z,9.33
2018-07-17T07:33:08.459Z,10.10
2018-07-17T07:35:36.792Z,8.00
2018-07-17T07:38:05.153Z,9.83
2018-07-17T07:40:33.514Z,11.40
2018-07-17T07:43:01.878Z,11.47
2018-07-17T07:45:30.213Z,9.13
2018-07-17T07:47:58.559Z,10.47
2018-07-17T07:50:26.871Z,10.80
2018-07-17T07:52:55.450Z,9.23
2018-07-17T07:55:23.810Z,8.67
2018-07-17T07:57:52.171Z,7.33
2018-07-17T08:00:20.496Z,8.00
2018-07-17T08:02:49.134Z,7.97
2018-07-17T08:05:17.545Z,8.30
2018-07-17T08:07:45.889Z,6.40
2018-07-17T08:10:14.468Z,8.47
2018-07-17T08:12:42.799Z,6.87
2018-07-17T08:15:11.142Z,8.67
2018-07-17T08:17:39.511Z,9.87
2018-07-17T08:20:07.887Z,8.87
2018-07-17T08:22:36.246Z,10.20
2018-07-17T08:25:04.650Z,11.37
2018-07-17T08:27:33.024Z,5.73
2018-07-17T08:30:01.461Z,11.17
2018-07-17T08:32:29.792Z,8.10
2018-07-17T08:34:58.133Z,7.13
2018-07-17T08:37:26.558Z,8.60
2018-07-17T08:39:54.914Z,7.60
2018-07-17T08:42:23.268Z,6.50
2018-07-17T08:44:51.659Z,5.53
2018-07-17T08:47:19.996Z,8.13
2018-07-17T08:49:48.370Z,6.23
2018-07-17T08:52:16.723Z,8.27
2018-07-17T08:54:46.017Z,7.07
2018-07-17T08:57:14.378Z,5.50
2018-07-17T08:59:42.699Z,8.27
2018-07-17T09:02:11.044Z,8.53
2018-07-17T09:04:39.365Z,10.23
2018-07-17T09:07:07.848Z,6.70
2018-07-17T09:09:36.146Z,5.63
2018-07-17T09:12:04.538Z,10.03
2018-07-17T09:14:32.895Z,10.43
2018-07-17T09:17:01.255Z,5.67
2018-07-17T09:19:29.633Z,6.60
2018-07-17T09:21:57.952Z,8.90
2018-07-17T09:24:26.298Z,12.43
2018-07-17T09:26:54.708Z,8.67
2018-07-17T09:29:23.168Z,10.20
2018-07-17T09:31:51.528Z,7.97
2018-07-17T09:34:19.880Z,7.07
2018-07-17T09:36:48.244Z,8.90
2018-07-17T09:39:16.690Z,12.57
2018-07-17T09:41:45.030Z,9.13
2018-07-17T09:44:13.395Z,10.97
2018-07-17T09:46:41.697Z,10.80
2018-07-17T09:49:10.039Z,9.23
2018-07-17T09:51:38.362Z,13.03
2018-07-17T09:54:06.737Z,18.20
2018-07-17T09:56:35.083Z,8.93
2018-07-17T09:59:03.457Z,10.20
2018-07-17T10:01:37.073Z,8.70
2018-07-17T10:04:05.370Z,9.30
2018-07-17T10:06:33.685Z,9.23
2018-07-17T10:09:01.993Z,7.97
2018-07-17T10:11:30.350Z,11.03
2018-07-17T10:13:58.682Z,11.87
2018-07-17T10:16:27.084Z,10.60
2018-07-17T10:18:55.433Z,9.07
2018-07-17T10:21:23.796Z,10.97
2018-07-17T10:23:52.168Z,9.00
2018-07-17T10:26:20.523Z,9.83
2018-07-17T10:28:48.854Z,9.60
2018-07-17T10:31:17.365Z,9.17
2018-07-17T10:33:45.690Z,7.20
2018-07-17T10:36:14.103Z,11.10
2018-07-17T10:38:42.490Z,9.17
2018-07-17T10:41:10.964Z,8.57
2018-07-17T10:43:39.249Z,6.17
2018-07-17T10:46:07.613Z,10.27
2018-07-17T10:48:37.125Z,9.97
2018-07-17T10:51:05.498Z,11.07
2018-07-17T10:53:33.779Z,13.03
2018-07-17T10:56:02.106Z,11.50
2018-07-17T10:58:30.452Z,10.23
2018-07-17T11:00:58.830Z,8.33
2018-07-17T11:03:27.060Z,7.63
2018-07-17T11:05:56.263Z,5.63
2018-07-17T11:08:24.673Z,11.00
2018-07-17T11:10:52.947Z,7.00
2018-07-17T11:13:21.310Z,6.90
2018-07-17T11:15:49.906Z,10.30
2018-07-17T11:18:18.242Z,11.73
2018-07-17T11:20:46.658Z,8.23
2018-07-17T11:23:15.034Z,9.33
2018-07-17T11:25:43.421Z,10.70
2018-07-17T11:28:12.044Z,8.13
2018-07-17T11:30:40.331Z,8.23
2018-07-17T11:33:08.622Z,9.63
2018-07-17T11:35:37.017Z,5.80
2018-07-17T11:38:05.319Z,8.07
2018-07-17T11:40:33.645Z,10.13
2018-07-17T11:43:02.000Z,8.20
2018-07-17T11:45:30.332Z,10.73
2018-07-17T11:47:58.655Z,9.27
2018-07-17T11:50:26.950Z,8.10
2018-07-17T11:52:56.148Z,7.17
2018-07-17T11:55:24.492Z,8.27
2018-07-17T11:57:52.859Z,7.50
2018-07-17T12:00:21.222Z,10.03
2018-07-17T12:02:49.550Z,7.70
2018-07-17T12:05:24.334Z,6.80
2018-07-17T12:07:52.579Z,8.53
2018-07-17T12:10:21.052Z,7.00
2018-07-17T12:12:49.503Z,11.17
2018-07-17T12:15:17.769Z,6.57
2018-07-17T12:17:46.150Z,6.73
2018-07-17T12:20:14.566Z,6.10
2018-07-17T12:22:42.912Z,8.40
2018-07-17T12:25:11.254Z,9.77
2018-07-17T12:27:39.572Z,7.03
2018-07-17T12:30:08.043Z,7.27
2018-07-17T12:32:36.354Z,7.20
2018-07-17T12:35:04.740Z,4.93
2018-07-17T12:37:35.193Z,8.17
2018-07-17T12:40:03.614Z,6.17
2018-07-17T12:42:31.982Z,7.13
2018-07-17T12:45:00.338Z,6.90
2018-07-17T12:47:29.231Z,5.37
2018-07-17T12:49:57.676Z,7.20
2018-07-17T12:52:25.944Z,6.40
2018-07-17T12:54:54.292Z,6.40
2018-07-17T12:57:22.594Z,6.17
2018-07-17T12:59:51.416Z,5.80
2018-07-17T13:02:19.733Z,4.20
2018-07-17T13:04:48.187Z,6.60
2018-07-17T13:07:16.521Z,6.50
2018-07-17T13:09:45.072Z,8.20
2018-07-17T13:12:13.451Z,6.77
2018-07-17T13:14:41.869Z,8.40
2018-07-17T13:17:10.227Z,8.60
2018-07-17T13:19:38.694Z,7.07
2018-07-17T13:22:07.013Z,6.60
2018-07-17T13:24:35.641Z,10.67
2018-07-17T13:27:03.986Z,4.27
2018-07-17T13:29:32.311Z,7.00
2018-07-17T13:32:00.767Z,8.93
2018-07-17T13:34:29.098Z,5.10
2018-07-17T13:36:57.646Z,5.53
2018-07-17T13:39:26.002Z,10.57
2018-07-17T13:41:54.380Z,6.10
2018-07-17T13:44:22.739Z,7.30
2018-07-17T13:46:51.100Z,5.63
2018-07-17T13:49:19.438Z,8.83
2018-07-17T13:51:47.753Z,7.83
2018-07-17T13:54:16.120Z,5.00
2018-07-17T13:56:44.470Z,6.50
2018-07-17T13:59:12.846Z,5.30
2018-07-17T14:01:41.171Z,4.73
2018-07-17T14:04:09.534Z,8.13
2018-07-17T14:06:37.922Z,4.83
2018-07-17T14:09:07.794Z,5.90
2018-07-17T14:11:36.244Z,6.53
2018-07-17T14:14:04.690Z,4.97
2018-07-17T14:16:33.332Z,8.37
2018-07-17T14:19:01.712Z,4.57
2018-07-17T14:21:30.052Z,4.73
2018-07-17T14:23:58.432Z,5.47
2018-07-17T14:26:26.819Z,3.83
2018-07-17T14:28:55.190Z,3.40
2018-07-17T14:31:23.489Z,6.00
2018-07-17T14:33:52.178Z,4.57
2018-07-17T14:36:20.505Z,4.37
2018-07-17T14:38:49.314Z,5.80
2018-07-17T14:41:17.712Z,4.23
2018-07-17T14:43:46.051Z,3.93
2018-07-17T14:46:14.403Z,6.03
2018-07-17T14:48:42.807Z,4.57
2018-07-17T14:51:12.847Z,5.23
2018-07-17T14:53:41.168Z,6.10
2018-07-17T14:56:10.028Z,5.20
2018-07-17T14:58:38.363Z,5.27
2018-07-17T15:01:07.235Z,4.87
2018-07-17T15:03:35.776Z,8.07
2018-07-17T15:06:04.366Z,5.60
2018-07-17T15:08:32.758Z,10.60
2018-07-17T15:11:01.121Z,9.73
2018-07-17T15:13:29.436Z,4.87
2018-07-17T15:15:57.921Z,7.47
2018-07-17T15:18:26.234Z,5.00
2018-07-17T15:20:54.638Z,6.40
2018-07-17T15:23:22.991Z,5.03
2018-07-17T15:25:51.329Z,7.00
2018-07-17T15:28:20.456Z,6.57
2018-07-17T15:30:49.142Z,6.20
2018-07-17T15:33:17.503Z,3.60
2018-07-17T15:35:45.808Z,5.50
2018-07-17T15:38:14.222Z,6.57
2018-07-17T15:40:42.530Z,6.93
2018-07-17T15:43:10.930Z,5.67
2018-07-17T15:45:39.294Z,4.80
2018-07-17T15:48:07.942Z,5.63
2018-07-17T15:50:36.270Z,5.70
2018-07-17T15:53:04.627Z,5.17
2018-07-17T15:55:32.964Z,8.80
2018-07-17T15:58:01.247Z,6.00
2018-07-17T16:00:29.565Z,5.67
2018-07-17T16:02:57.912Z,6.33
2018-07-17T16:05:26.394Z,5.10
2018-07-17T16:07:54.718Z,4.80
2018-07-17T16:10:23.707Z,6.73
2018-07-17T16:12:52.128Z,8.13
2018-07-17T16:15:20.617Z,4.33
2018-07-17T16:17:49.025Z,3.60
2018-07-17T16:20:17.997Z,4.30
2018-07-17T16:22:46.332Z,4.67
2018-07-17T16:25:14.686Z,4.90
2018-07-17T16:27:43.132Z,7.73
2018-07-17T16:30:11.482Z,5.17
2018-07-17T16:32:40.016Z,5.93
2018-07-17T16:35:09.280Z,4.67
2018-07-17T16:37:41.001Z,3.80
2018-07-17T16:40:12.258Z,5.13
2018-07-17T16:42:40.658Z,4.73
2018-07-17T16:45:09.021Z,3.13
2018-07-17T16:47:37.600Z,5.10
2018-07-17T16:50:06.085Z,5.50
2018-07-17T16:52:35.041Z,3.40
2018-07-17T16:55:03.441Z,7.40
2018-07-17T16:57:32.044Z,4.83
2018-07-17T17:00:00.565Z,9.03
2018-07-17T17:02:28.909Z,2.80
2018-07-17T17:04:57.239Z,5.30
2018-07-17T17:07:25.559Z,4.63
2018-07-17T17:09:53.900Z,5.80
2018-07-17T17:12:22.287Z,3.80
2018-07-17T17:14:50.436Z,3.30
2018-07-17T17:17:41.369Z,4.10
2018-07-17T17:20:09.879Z,6.03
2018-07-17T17:22:38.264Z,4.33
2018-07-17T17:25:06.458Z,3.60
2018-07-17T17:27:34.795Z,4.93
2018-07-17T17:30:03.022Z,5.17
2018-07-17T17:32:31.264Z,6.43
2018-07-17T17:34:59.448Z,8.63
2018-07-17T17:37:27.470Z,4.13
2018-07-17T17:39:55.568Z,8.97
2018-07-17T17:42:23.581Z,4.10
2018-07-17T17:44:51.673Z,4.63
2018-07-17T17:47:19.742Z,3.83
2018-07-17T17:49:47.806Z,3.97
2018-07-17T17:52:15.889Z,4.93
2018-07-17T17:54:44.018Z,13.80
2018-07-17T17:57:12.134Z,6.07
2018-07-17T17:59:43.817Z,4.53
2018-07-17T18:02:12.137Z,6.10
2018-07-17T18:04:40.519Z,7.87
2018-07-17T18:07:12.206Z,6.97
2018-07-17T18:09:58.119Z,7.40
2018-07-17T18:15:20.952Z,5.53
2018-07-17T18:18:01.475Z,4.80
2018-07-17T18:20:37.027Z,5.63
2018-07-17T18:23:08.762Z,20.37
2018-07-17T18:25:37.354Z,7.07
2018-07-17T18:28:06.664Z,6.10
2018-07-17T18:30:35.150Z,4.30
2018-07-17T18:33:04.387Z,5.30
2018-07-17T18:35:32.966Z,10.27
2018-07-17T18:38:03.188Z,20.37
2018-07-17T18:40:32.706Z,10.10
2018-07-17T18:43:01.431Z,6.17
2018-07-17T18:45:30.107Z,3.00
2018-07-17T18:47:59.461Z,8.17
2018-07-17T18:50:28.023Z,7.03
2018-07-17T18:52:56.685Z,7.70
2018-07-17T18:55:25.365Z,9.00
2018-07-17T18:57:53.963Z,3.77
2018-07-17T19:00:22.660Z,7.73
2018-07-17T19:02:51.313Z,5.53
2018-07-17T19:05:20.095Z,6.37
2018-07-17T19:07:49.128Z,8.23
2018-07-17T19:10:18.433Z,7.63
2018-07-17T19:12:47.210Z,6.53
2018-07-17T19:15:15.972Z,8.37
2018-07-17T19:17:45.751Z,4.37
2018-07-17T19:20:15.053Z,9.43
2018-07-17T19:22:43.651Z,9.47
2018-07-17T19:25:12.424Z,7.17
2018-07-17T19:27:42.269Z,6.67
2018-07-17T19:30:11.188Z,6.83
2018-07-17T19:32:39.756Z,12.90
2018-07-17T19:35:15.059Z,9.27
2018-07-17T19:37:44.441Z,4.80
2018-07-17T19:40:13.331Z,8.20
2018-07-17T19:42:42.710Z,9.83
2018-07-17T19:45:11.561Z,4.53
2018-07-17T19:47:41.316Z,6.53
2018-07-17T19:50:10.269Z,11.10
2018-07-17T19:52:38.961Z,6.80
2018-07-17T19:55:07.536Z,8.90
2018-07-17T19:57:35.974Z,5.73
2018-07-17T20:00:04.947Z,6.53
2018-07-17T20:02:33.312Z,7.70
2018-07-17T20:05:01.737Z,5.40
2018-07-17T20:07:30.367Z,6.73
2018-07-17T20:09:58.823Z,8.03
2018-07-17T20:12:27.471Z,6.97
2018-07-17T20:14:55.942Z,8.37
2018-07-17T20:17:24.318Z,8.23
2018-07-17T20:19:52.731Z,8.70
2018-07-17T20:22:21.165Z,6.50
2018-07-17T20:24:49.552Z,7.93
2018-07-17T20:27:17.889Z,7.73
2018-07-17T20:29:46.709Z,8.20
2018-07-17T20:32:15.098Z,9.07
2018-07-17T20:34:43.522Z,9.50
2018-07-17T20:37:11.885Z,10.23
2018-07-17T20:39:40.261Z,4.37
2018-07-17T20:42:09.371Z,6.63
2018-07-17T20:44:37.698Z,9.33
2018-07-17T20:47:06.325Z,6.27
2018-07-17T20:49:34.678Z,7.73
2018-07-17T20:52:03.147Z,3.30
2018-07-17T20:54:31.595Z,5.63
2018-07-17T20:57:04.671Z,7.40
2018-07-17T20:59:33.111Z,7.90
2018-07-17T21:02:01.498Z,8.07
2018-07-17T21:04:31.870Z,6.90
2018-07-17T21:07:01.229Z,7.07
2018-07-17T21:09:29.597Z,9.37
2018-07-17T21:12:02.177Z,9.10
2018-07-17T21:14:30.581Z,5.83
2018-07-17T21:16:58.889Z,8.20
2018-07-17T21:19:27.208Z,3.23
2018-07-17T21:21:58.619Z,6.30
2018-07-17T21:24:28.170Z,7.77
2018-07-17T21:26:58.031Z,6.57
2018-07-17T21:29:26.559Z,8.43
2018-07-17T21:31:54.963Z,6.07
2018-07-17T21:34:23.425Z,8.60
2018-07-17T21:36:51.805Z,7.20
2018-07-17T21:39:20.270Z,11.60
2018-07-17T21:41:48.691Z,12.23
2018-07-17T21:44:17.080Z,9.00
2018-07-17T21:46:45.461Z,12.33
2018-07-17T21:49:13.961Z,12.60
2018-07-17T21:51:42.332Z,7.43
2018-07-17T21:54:10.718Z,9.70
2018-07-17T21:56:39.124Z,7.27
2018-07-17T21:59:07.510Z,10.63
2018-07-17T22:01:37.223Z,11.50
2018-07-17T22:04:05.821Z,12.73
2018-07-17T22:06:34.236Z,11.07
2018-07-17T22:09:02.762Z,10.97
2018-07-17T22:11:31.159Z,13.63
2018-07-17T22:13:59.610Z,11.73
2018-07-17T22:16:28.018Z,7.73
2018-07-17T22:18:56.601Z,12.00
2018-07-17T22:21:25.134Z,10.73
2018-07-17T22:23:53.470Z,9.40
2018-07-17T22:26:21.851Z,8.07
2018-07-17T22:28:50.218Z,9.87
2018-07-17T22:31:19.022Z,9.27
2018-07-17T22:33:47.684Z,7.93
2018-07-17T22:36:16.139Z,6.13
2018-07-17T22:38:44.768Z,8.03
2018-07-17T22:41:13.225Z,7.20
2018-07-17T22:43:41.622Z,9.50
2018-07-17T22:46:10.033Z,7.10
2018-07-17T22:48:38.382Z,8.80
2018-07-17T22:51:06.923Z,9.23
2018-07-17T22:53:35.367Z,5.50
2018-07-17T22:56:03.734Z,8.70
2018-07-17T22:58:32.106Z,9.57
2018-07-17T23:01:00.532Z,9.17
2018-07-17T23:03:28.912Z,8.77
2018-07-17T23:05:57.279Z,11.30
2018-07-17T23:08:25.730Z,8.07
2018-07-17T23:10:54.101Z,7.67
2018-07-17T23:13:22.579Z,10.73
2018-07-17T23:15:50.955Z,4.87
2018-07-17T23:18:19.339Z,8.50
2018-07-17T23:20:47.749Z,8.50
2018-07-17T23:23:17.865Z,8.17
2018-07-17T23:25:46.250Z,11.43
2018-07-17T23:28:14.747Z,9.33
2018-07-17T23:30:43.133Z,12.40
2018-07-17T23:33:11.549Z,9.97
2018-07-17T23:35:40.028Z,8.57
2018-07-17T23:38:08.407Z,9.07
2018-07-17T23:40:36.902Z,11.20
2018-07-17T23:43:05.375Z,7.33
2018-07-17T23:45:33.859Z,7.07
2018-07-17T23:48:02.250Z,8.00
2018-07-17T23:50:30.656Z,6.20
2018-07-17T23:52:59.077Z,8.10
2018-07-17T23:55:27.511Z,6.37
2018-07-17T23:57:55.904Z,7.20
